createdAt,value
2023-02-17T00:00:32.804Z,100754.41
2023-02-17T00:03:00.258Z,100760.38
2023-02-17T00:05:29.888Z,100749.78
2023-02-17T00:07:59.705Z,100750.75
2023-02-17T00:10:26.443Z,100742.69
2023-02-17T00:12:59.468Z,100746.25
2023-02-17T00:15:29.064Z,100735.13
2023-02-17T00:17:58.142Z,100731.47
2023-02-17T00:20:32.355Z,100734.03
2023-02-17T00:23:04.749Z,100721.47
2023-02-17T00:25:49.255Z,100716.81
2023-02-17T00:28:46.431Z,100713.41
2023-02-17T00:31:27.174Z,100714.97
2023-02-17T00:34:05.346Z,100709.38
2023-02-17T00:36:32.424Z,100702.91
2023-02-17T00:39:08.951Z,100700.34
2023-02-17T00:41:35.653Z,100700.34
2023-02-17T00:44:15.082Z,100684.25
2023-02-17T00:46:54.650Z,100680.44
2023-02-17T00:49:35.736Z,100682.41
2023-02-17T00:52:08.640Z,100668.03
2023-02-17T00:54:35.428Z,100665.34
2023-02-17T00:57:10.178Z,100669.31
2023-02-17T00:59:36.937Z,100658.75
2023-02-17T01:02:03.922Z,100664.09
2023-02-17T01:04:30.671Z,100664.09
2023-02-17T01:07:07.477Z,100657.75
2023-02-17T01:09:34.200Z,100646.00
2023-02-17T01:12:04.085Z,100646.88
2023-02-17T01:14:34.033Z,100650.41
2023-02-17T01:17:00.672Z,100646.34
2023-02-17T01:19:33.062Z,100649.16
2023-02-17T01:22:10.318Z,100629.28
2023-02-17T01:24:38.244Z,100630.97
2023-02-17T01:27:10.933Z,100628.03
2023-02-17T01:29:37.602Z,100620.53
2023-02-17T01:32:05.909Z,100619.28
2023-02-17T01:34:35.072Z,100613.09
2023-02-17T01:37:11.022Z,100608.00
2023-02-17T01:39:37.841Z,100612.97
2023-02-17T01:42:04.590Z,100606.72
2023-02-17T01:44:34.350Z,100601.09
2023-02-17T01:47:04.329Z,100601.94
2023-02-17T01:49:51.984Z,100582.88
2023-02-17T01:52:30.992Z,100558.00
2023-02-17T01:55:13.888Z,100556.91
2023-02-17T01:57:55.409Z,100565.09
2023-02-17T02:00:29.455Z,100560.28
2023-02-17T02:02:58.172Z,100561.72
2023-02-17T02:05:25.213Z,100552.94
2023-02-17T02:07:54.519Z,100552.53
2023-02-17T02:10:24.400Z,100556.22
2023-02-17T02:12:53.844Z,100556.81
2023-02-17T02:15:59.237Z,100543.09
2023-02-17T02:19:34.968Z,100528.13
2023-02-17T02:22:52.363Z,100534.03
2023-02-17T02:26:35.281Z,100523.06
2023-02-17T02:29:54.970Z,100521.09
2023-02-17T02:32:51.532Z,100522.88
2023-02-17T02:36:28.421Z,100510.59
2023-02-17T02:39:34.051Z,100490.84
2023-02-17T02:42:59.817Z,100469.19
2023-02-17T02:45:33.350Z,100476.28
2023-02-17T02:48:00.737Z,100471.63
2023-02-17T02:51:13.279Z,100477.41
2023-02-17T02:54:28.687Z,100471.75
2023-02-17T02:57:16.184Z,100467.25
2023-02-17T03:00:39.017Z,100461.72
2023-02-17T03:04:01.134Z,100466.84
2023-02-17T03:10:04.218Z,100459.75
2023-02-17T03:12:31.807Z,100450.56
2023-02-17T03:15:38.205Z,100460.75
2023-02-17T03:18:16.567Z,100460.03
2023-02-17T03:20:56.305Z,100458.75
2023-02-17T03:23:32.276Z,100459.59
2023-02-17T03:26:17.135Z,100463.00
2023-02-17T03:28:49.886Z,100463.84
2023-02-17T03:31:29.047Z,100463.72
2023-02-17T03:33:58.207Z,100465.44
2023-02-17T03:36:31.266Z,100459.19
2023-02-17T03:38:59.030Z,100449.56
2023-02-17T03:41:28.897Z,100452.00
2023-02-17T03:43:55.692Z,100435.00
2023-02-17T03:46:31.673Z,100432.31
2023-02-17T03:49:09.417Z,100438.56
2023-02-17T03:51:36.238Z,100450.56
2023-02-17T03:54:03.064Z,100440.66
2023-02-17T03:56:30.478Z,100438.13
2023-02-17T03:58:57.278Z,100440.53
2023-02-17T04:01:27.193Z,100433.75
2023-02-17T04:03:57.205Z,100442.22
2023-02-17T04:06:29.000Z,100444.75
2023-02-17T04:08:55.854Z,100435.56
2023-02-17T04:11:28.714Z,100424.28
2023-02-17T04:13:55.362Z,100418.59
2023-02-17T04:16:25.276Z,100413.22
2023-02-17T04:18:51.953Z,100415.91
2023-02-17T04:21:18.672Z,100408.56
2023-02-17T04:23:45.738Z,100399.66
2023-02-17T04:26:12.598Z,100390.28
2023-02-17T04:28:44.139Z,100389.19
2023-02-17T04:31:13.751Z,100400.63
2023-02-17T04:33:48.776Z,100393.56
2023-02-17T04:36:17.974Z,100381.97
2023-02-17T04:38:51.429Z,100369.38
2023-02-17T04:41:28.769Z,100369.94
2023-02-17T04:43:55.517Z,100364.41
2023-02-17T04:46:30.417Z,100366.13
2023-02-17T04:48:57.220Z,100371.19
2023-02-17T04:51:31.048Z,100363.81
2023-02-17T04:53:58.029Z,100348.53
2023-02-17T04:56:24.942Z,100348.41
2023-02-17T04:58:51.707Z,100352.63
2023-02-17T05:01:18.388Z,100346.41
2023-02-17T05:03:45.539Z,100340.34
2023-02-17T05:06:12.342Z,100341.75
2023-02-17T05:08:46.962Z,100324.91
2023-02-17T05:11:14.860Z,100333.81
2023-02-17T05:13:44.785Z,100325.63
2023-02-17T05:16:11.728Z,100318.53
2023-02-17T05:18:38.607Z,100316.72
2023-02-17T05:21:05.885Z,100316.53
2023-02-17T05:23:44.147Z,100317.81
2023-02-17T05:26:11.253Z,100318.50
2023-02-17T05:28:37.973Z,100308.75
2023-02-17T05:31:05.456Z,100294.16
2023-02-17T05:33:33.447Z,100287.94
2023-02-17T05:36:10.815Z,100283.72
2023-02-17T05:38:47.893Z,100271.94
2023-02-17T05:41:17.686Z,100266.56
2023-02-17T05:43:44.926Z,100269.97
2023-02-17T05:46:11.717Z,100260.22
2023-02-17T05:48:38.966Z,100249.31
2023-02-17T05:51:08.815Z,100258.50
2023-02-17T05:53:42.398Z,100250.31
2023-02-17T05:56:12.094Z,100238.03
2023-02-17T05:58:38.866Z,100242.94
2023-02-17T06:01:12.654Z,100238.41
2023-02-17T06:03:49.599Z,100219.13
2023-02-17T06:06:16.561Z,100217.59
2023-02-17T06:08:48.710Z,100220.97
2023-02-17T06:11:15.579Z,100208.38
2023-02-17T06:13:48.388Z,100215.47
2023-02-17T06:16:15.117Z,100208.94
2023-02-17T06:18:44.915Z,100209.91
2023-02-17T06:21:20.171Z,100207.91
2023-02-17T06:23:47.568Z,100205.69
2023-02-17T06:26:27.729Z,100193.50
2023-02-17T07:26:16.581Z,100123.72
2023-02-17T07:28:50.787Z,100125.13
2023-02-17T07:31:18.537Z,100124.66
2023-02-17T07:33:53.003Z,100111.94
2023-02-17T07:36:19.931Z,100103.47
2023-02-17T07:38:47.287Z,100114.63
2023-02-17T07:41:28.729Z,100103.47
2023-02-17T07:43:58.007Z,100103.97
2023-02-17T07:46:30.316Z,100099.59
2023-02-17T07:48:58.546Z,100103.03
2023-02-17T07:51:25.747Z,100094.63
2023-02-17T07:53:53.535Z,100090.78
2023-02-17T07:56:24.578Z,100090.25
2023-02-17T07:58:51.482Z,100077.19
2023-02-17T08:01:24.049Z,100074.50
2023-02-17T08:03:54.461Z,100062.34
2023-02-17T08:06:27.915Z,100073.13
2023-02-17T08:09:16.955Z,100066.91
2023-02-17T08:12:04.932Z,100037.66
2023-02-17T08:14:38.659Z,100033.47
2023-02-17T08:17:09.434Z,100028.63
2023-02-17T08:19:49.737Z,100014.78
2023-02-17T08:22:18.177Z,100023.38
2023-02-17T08:24:47.481Z,100025.38
2023-02-17T08:27:16.632Z,100023.38
2023-02-17T08:29:49.509Z,100021.00
2023-02-17T08:32:22.558Z,99996.63
2023-02-17T08:34:52.378Z,99986.72
2023-02-17T08:37:22.356Z,99976.28
2023-02-17T08:39:49.408Z,99982.69
2023-02-17T08:42:19.775Z,99961.53
2023-02-17T08:45:25.637Z,99969.06
2023-02-17T08:47:52.435Z,99963.19
2023-02-17T08:50:20.351Z,99969.59
2023-02-17T08:52:47.524Z,99943.38
2023-02-17T08:55:19.115Z,99941.38
2023-02-17T08:57:48.694Z,99935.81
2023-02-17T09:00:18.904Z,99945.41
2023-02-17T09:02:46.343Z,99931.28
2023-02-17T09:05:17.068Z,99951.47
2023-02-17T09:07:44.220Z,99955.03
2023-02-17T09:10:16.632Z,99962.59
2023-02-17T11:54:26.197Z,99808.66
2023-02-17T11:58:10.875Z,99811.66
2023-02-17T12:02:12.744Z,99820.75
2023-02-17T12:05:20.148Z,99815.34
2023-02-17T12:08:27.353Z,99808.81
2023-02-17T12:11:37.027Z,99789.81
2023-02-17T12:14:44.752Z,99787.25
2023-02-17T12:17:54.376Z,99770.09
2023-02-17T12:20:58.517Z,99798.88
2023-02-17T12:23:48.110Z,99795.00
2023-02-17T12:26:46.269Z,99796.84
2023-02-17T12:30:10.531Z,99794.66
2023-02-17T12:33:20.533Z,99786.59
2023-02-17T12:36:00.845Z,99791.13
2023-02-17T12:38:37.168Z,99798.38
2023-02-17T12:41:28.484Z,99794.00
2023-02-17T12:44:27.377Z,99795.00
2023-02-17T12:47:02.744Z,99802.56
2023-02-17T12:50:03.052Z,99804.44
2023-02-17T12:52:59.328Z,99790.47
2023-02-17T12:55:50.983Z,99786.41
2023-02-17T12:58:31.102Z,99758.78
2023-02-17T13:01:22.146Z,99777.47
2023-02-17T13:03:49.064Z,99774.47
2023-02-17T13:06:46.016Z,99774.63
2023-02-17T13:09:41.456Z,99779.69
2023-02-17T13:12:33.254Z,99772.44
2023-02-17T13:15:29.766Z,99784.56
2023-02-17T13:18:03.520Z,99786.41
2023-02-17T13:21:23.230Z,99781.53
2023-02-17T13:24:30.770Z,99787.59
2023-02-17T13:27:12.241Z,99798.72
2023-02-17T13:29:45.075Z,99767.25
2023-02-17T13:32:14.550Z,99801.56
2023-02-17T13:34:46.435Z,99789.94
2023-02-17T13:37:33.589Z,99790.13
2023-02-17T13:40:24.136Z,99796.69
2023-02-17T13:42:57.624Z,99794.66
2023-02-17T13:45:52.757Z,99792.13
2023-02-17T13:48:36.244Z,99816.53
2023-02-17T13:51:11.306Z,99794.63
2023-02-17T13:53:53.152Z,99780.34
2023-02-17T13:56:30.498Z,99775.78
2023-02-17T13:59:32.849Z,99784.34
2023-02-17T14:02:00.040Z,99769.75
2023-02-17T14:04:55.117Z,99765.19
2023-02-17T14:07:22.391Z,99778.97
2023-02-17T14:09:55.151Z,99765.84
2023-02-17T14:12:24.921Z,99779.13
2023-02-17T14:14:54.971Z,99787.88
2023-02-17T14:17:33.257Z,99764.16
2023-02-17T14:20:36.291Z,99795.75
2023-02-17T14:23:15.891Z,99784.25
2023-02-17T14:25:52.797Z,99793.28
2023-02-17T14:28:27.080Z,99807.44
2023-02-17T14:31:08.186Z,99810.63
2023-02-17T14:33:47.331Z,99812.94
2023-02-17T14:36:14.642Z,99787.75
2023-02-17T14:39:05.306Z,99801.50
2023-02-17T14:41:35.286Z,99806.09
2023-02-17T14:44:06.105Z,99807.38
2023-02-17T14:46:45.134Z,99823.50
2023-02-17T14:49:14.476Z,99839.63
2023-02-17T14:51:50.520Z,99837.91
2023-02-17T14:54:19.281Z,99847.78
2023-02-17T14:57:18.388Z,99851.34
2023-02-17T14:59:59.305Z,99880.97
2023-02-17T15:05:22.706Z,99869.13
2023-02-17T15:07:52.193Z,99867.78
2023-02-17T15:10:34.774Z,99889.97
2023-02-17T15:13:01.882Z,99859.69
2023-02-17T15:15:28.582Z,99900.25
2023-02-17T15:17:55.281Z,99897.44
2023-02-17T15:20:24.442Z,99911.19
2023-02-17T15:23:05.019Z,99919.91
2023-02-17T15:25:35.573Z,99907.19
2023-02-17T15:28:05.038Z,99916.19
2023-02-17T15:30:33.282Z,99933.41
2023-02-17T15:33:02.625Z,99932.59
2023-02-17T15:35:31.558Z,99938.78
2023-02-17T15:37:58.297Z,99959.25
2023-02-17T15:40:28.246Z,99941.19
2023-02-17T15:43:16.706Z,99949.94
2023-02-17T15:45:48.721Z,99972.28
2023-02-17T15:48:24.942Z,99968.22
2023-02-17T15:50:56.555Z,99987.38
2023-02-17T15:53:25.441Z,99970.56
2023-02-17T15:55:55.686Z,99985.63
2023-02-17T15:58:26.008Z,99984.59
2023-02-17T16:01:19.229Z,99964.72
2023-02-17T16:03:57.445Z,99988.41
2023-02-17T16:06:29.127Z,99984.78
2023-02-17T16:09:07.676Z,100000.72
2023-02-17T16:11:53.615Z,99979.19
2023-02-17T16:14:36.151Z,99997.28
2023-02-17T16:17:13.966Z,99980.81
2023-02-17T16:19:49.807Z,99981.56
2023-02-17T16:22:46.514Z,100003.88
2023-02-17T16:25:28.242Z,100000.53
2023-02-17T16:27:56.954Z,100016.19
2023-02-17T16:30:46.702Z,100009.66
2023-02-17T16:34:01.884Z,100024.69
2023-02-17T16:36:38.840Z,100018.41
2023-02-17T16:39:23.728Z,100047.47
2023-02-17T16:41:56.139Z,100022.97
2023-02-17T16:44:33.776Z,100002.78
2023-02-17T16:47:23.311Z,100045.75
2023-02-17T16:49:57.532Z,100018.66
2023-02-17T16:52:30.866Z,100056.66
2023-02-17T16:55:03.243Z,100040.28
2023-02-17T16:57:36.963Z,100024.53
2023-02-17T17:00:19.857Z,100009.00
2023-02-17T17:02:50.523Z,100022.88
2023-02-17T17:05:29.824Z,100029.09
2023-02-17T17:08:03.128Z,100059.47
2023-02-17T17:13:31.005Z,100083.31
2023-02-17T17:16:33.941Z,100060.56
2023-02-17T17:19:05.751Z,100095.13
2023-02-17T17:21:32.998Z,100105.88
2023-02-17T17:24:00.164Z,100105.19
2023-02-17T17:26:51.266Z,100099.53
2023-02-17T17:29:24.810Z,100095.19
2023-02-17T18:54:17.451Z,100265.78
2023-02-17T19:49:36.081Z,100354.44
2023-02-17T21:06:33.340Z,100489.63
2023-02-17T21:09:18.315Z,100472.41
2023-02-17T21:11:46.538Z,100506.44
2023-02-17T21:14:15.322Z,100480.88
2023-02-17T21:16:44.022Z,100505.47
2023-02-17T21:19:10.761Z,100512.94
2023-02-17T21:21:37.683Z,100542.59
2023-02-17T21:24:07.659Z,100508.13
2023-02-17T21:26:34.512Z,100530.03
2023-02-17T21:29:01.438Z,100523.91
2023-02-17T21:31:31.513Z,100518.66
2023-02-17T21:34:05.385Z,100516.91
2023-02-17T21:36:32.277Z,100517.03
2023-02-17T21:39:00.974Z,100546.38
2023-02-17T21:41:30.248Z,100551.00
2023-02-17T21:44:15.950Z,100548.28
2023-02-17T21:46:56.076Z,100542.38
2023-02-17T21:49:23.479Z,100515.75
2023-02-17T21:51:53.230Z,100541.72
2023-02-17T21:54:20.328Z,100531.28
2023-02-17T21:56:47.177Z,100541.25
2023-02-17T21:59:14.161Z,100542.78
2023-02-17T22:01:53.096Z,100536.34
2023-02-17T22:04:25.633Z,100531.03
2023-02-17T22:06:58.021Z,100541.03
2023-02-17T22:09:24.817Z,100560.44
2023-02-17T22:11:58.593Z,100558.22
2023-02-17T22:14:25.660Z,100555.44
2023-02-17T22:16:54.602Z,100562.63
2023-02-17T22:19:30.382Z,100567.00
2023-02-17T22:22:01.084Z,100582.97
2023-02-17T22:24:30.973Z,100556.75
2023-02-17T22:27:10.293Z,100549.47
2023-02-17T22:29:37.045Z,100560.97
2023-02-17T22:32:06.835Z,100562.69
2023-02-17T22:34:33.650Z,100571.94
2023-02-17T22:37:00.355Z,100561.34
2023-02-17T22:39:27.057Z,100577.91
2023-02-17T22:42:07.199Z,100594.09
2023-02-17T22:44:33.961Z,100559.78
2023-02-17T22:47:00.778Z,100557.63
2023-02-17T22:49:28.000Z,100579.38
2023-02-17T22:51:55.057Z,100584.31
2023-02-17T22:54:21.780Z,100585.97
2023-02-17T22:56:53.258Z,100569.56
2023-02-17T22:59:20.023Z,100583.09
2023-02-17T23:01:53.942Z,100571.56
2023-02-17T23:04:25.787Z,100568.25
2023-02-17T23:07:10.845Z,100592.28
2023-02-17T23:09:37.715Z,100587.03
2023-02-17T23:12:11.470Z,100584.72
2023-02-17T23:14:43.801Z,100591.91
2023-02-17T23:17:16.372Z,100605.88
2023-02-17T23:19:54.998Z,100595.19
2023-02-17T23:22:22.817Z,100603.09
2023-02-17T23:24:49.435Z,100604.56
2023-02-17T23:27:16.485Z,100610.00
2023-02-17T23:29:57.751Z,100607.78
2023-02-17T23:32:24.487Z,100596.13
2023-02-17T23:34:53.448Z,100590.47
2023-02-17T23:37:22.507Z,100603.88
2023-02-17T23:39:49.290Z,100605.38
2023-02-17T23:42:16.039Z,100607.97
2023-02-17T23:44:45.753Z,100601.59
2023-02-17T23:47:12.443Z,100597.97
2023-02-17T23:49:41.109Z,100603.56
2023-02-17T23:52:07.771Z,100608.00
2023-02-17T23:54:34.382Z,100597.03
2023-02-17T23:57:07.135Z,100594.00
2023-02-17T23:59:34.030Z,100613.81
